Hebron, Kentucky
Current Conditions -  °F | °C
As of 10:52 AM on Saturday 22 Nov 2014 (Local Time) from KCVG Reporting Station
Light Rain Light Rain  
Wind Chill: 41°   Ceiling: 6000
Heat Index: 47°   Visibility: 10mi
Dew Point: 32°   Wind: 15mph
Humidity: 56%   Direction: 200°SSW
Pressure: 30.25"   Gusts: 22mph
Location:  39.07°N, 84.7°W
Report Text: KCVG 221552Z 20013G19KT 10SM -RA BKN060 OVC070 08/00 A3025 RMK AO2 RAB52 SLP246 OCNL BINOVC P0000 T00830000
Loading
Personal Weather Stations






























Interactive Weather Map New forecast layout! Learn more

10-Day Weather Forecast

Advertisements
Track Severe Weather on mobile